Time;durP1;ratioP1;P1;durP2;ratioP2;P2;SDS_P1;SDS_P2;PMS_P1;PMS_P2;Temp;Humidity;BMP_temperature;BMP_pressure;BME280_temperature;BME280_humidity;BME280_pressure;Samples;Min_cycle;Max_cycle;Signal;HPM_P1;HPM_P2
2023/02/27 00:00:30;;;;;;;2.80;1.30;;;;;;;3.72;45.86;98470.16;8382582;28;20221;-72
2023/02/27 00:04:33;;;;;;;2.73;1.60;;;;;;;3.44;45.96;98487.44;8382272;28;20238;-72
2023/02/27 00:08:37;;;;;;;1.77;1.47;;;;;;;3.92;45.39;98492.19;8382287;28;20372;-72
2023/02/27 00:12:43;;;;;;;2.43;1.47;;;;;;;3.78;45.46;98492.31;8381956;28;20229;-72
2023/02/27 00:16:46;;;;;;;2.63;1.40;;;;;;;3.84;45.85;98493.97;8381537;28;20232;-72
2023/02/27 00:20:49;;;;;;;2.37;1.40;;;;;;;3.69;46.03;98490.69;8381831;28;20232;-72
2023/02/27 00:24:53;;;;;;;2.13;1.50;;;;;;;3.74;45.55;98475.28;8381669;28;20323;-72
2023/02/27 00:28:56;;;;;;;1.93;1.23;;;;;;;3.97;45.08;98495.56;8381478;28;20236;-72
2023/02/27 00:32:59;;;;;;;2.03;1.30;;;;;;;3.79;45.43;98493.16;8381160;28;20240;-72
2023/02/27 00:37:04;;;;;;;1.70;1.30;;;;;;;3.75;45.77;98494.03;8380819;28;20248;-72
2023/02/27 00:41:08;;;;;;;3.57;1.67;;;;;;;3.86;45.65;98495.66;8381025;28;20229;-72
2023/02/27 00:45:11;;;;;;;1.87;1.40;;;;;;;3.87;45.26;98501.66;8381055;28;20216;-72
2023/02/27 00:49:16;;;;;;;1.90;1.20;;;;;;;3.57;45.92;98493.34;8381097;28;20221;-72
2023/02/27 00:53:19;;;;;;;1.77;1.40;;;;;;;3.78;45.38;98487.19;8380354;28;20365;-72
2023/02/27 00:57:23;;;;;;;1.70;1.10;;;;;;;3.87;45.25;98486.28;8380835;28;20231;-72
2023/02/27 01:01:26;;;;;;;3.17;1.43;;;;;;;3.72;45.38;98490.66;8380735;28;20221;-72
2023/02/27 01:05:29;;;;;;;2.43;1.50;;;;;;;3.66;45.28;98485.59;8380633;28;20587;-72
2023/02/27 01:09:32;;;;;;;1.70;1.30;;;;;;;3.60;45.04;98483.09;8380318;28;20228;-72
2023/02/27 01:13:36;;;;;;;2.23;1.30;;;;;;;3.65;44.86;98481.31;8380167;28;20278;-72
2023/02/27 01:17:40;;;;;;;3.27;1.40;;;;;;;3.52;44.97;98472.91;8380489;28;20232;-72
2023/02/27 01:21:42;;;;;;;3.17;1.27;;;;;;;3.56;45.37;98477.97;8379745;28;20262;-72
2023/02/27 01:25:49;;;;;;;1.60;1.17;;;;;;;3.60;45.04;98479.66;8379827;28;20539;-72
2023/02/27 01:29:55;;;;;;;4.00;1.50;;;;;;;3.60;44.94;98477.09;8379309;28;20221;-72
2023/02/27 01:33:58;;;;;;;2.27;1.23;;;;;;;3.40;45.39;98478.09;8379696;28;20229;-72
2023/02/27 01:38:01;;;;;;;3.20;1.47;;;;;;;3.52;44.83;98482.28;8379637;28;20246;-72
2023/02/27 01:42:04;;;;;;;2.27;1.37;;;;;;;3.66;45.22;98483.03;8379661;28;20225;-72
2023/02/27 01:46:08;;;;;;;2.40;1.23;;;;;;;3.70;44.68;98486.41;8380508;28;20224;-72
2023/02/27 01:50:12;;;;;;;1.70;1.30;;;;;;;3.59;45.05;98478.81;8386682;28;20224;-72
2023/02/27 01:54:17;;;;;;;3.33;1.40;;;;;;;3.44;44.91;98481.50;8386209;28;20247;-72
2023/02/27 01:58:22;;;;;;;3.07;1.50;;;;;;;3.51;44.88;98488.28;8386046;28;20231;-72
2023/02/27 02:02:29;;;;;;;2.63;1.50;;;;;;;3.36;45.08;98490.94;8386020;28;20235;-72
2023/02/27 02:06:35;;;;;;;1.60;1.40;;;;;;;3.49;45.30;98482.31;8386082;28;20228;-72
2023/02/27 02:10:38;;;;;;;2.13;1.47;;;;;;;3.57;44.74;98492.50;8385544;28;20448;-72
2023/02/27 02:14:42;;;;;;;2.10;1.60;;;;;;;3.53;44.87;98496.78;8385105;28;20505;-73
2023/02/27 02:18:50;;;;;;;2.53;1.20;;;;;;;3.38;45.24;98494.34;8385646;28;20547;-72
2023/02/27 02:23:26;;;;;;;2.50;1.33;;;;;;;3.31;45.03;98490.97;8385092;28;20225;-72
2023/02/27 02:27:38;;;;;;;1.77;1.30;;;;;;;3.17;45.43;98495.34;8385018;28;20231;-72
2023/02/27 02:31:56;;;;;;;3.93;1.43;;;;;;;3.04;45.02;98487.72;8385143;28;20504;-72
2023/02/27 02:36:49;;;;;;;1.50;1.40;;;;;;;2.48;45.95;98469.25;8384497;28;20240;-72
2023/02/27 02:40:55;;;;;;;2.30;1.60;;;;;;;3.34;45.34;98501.19;8273139;28;20244;-72
2023/02/27 02:45:12;;;;;;;4.13;1.50;;;;;;;2.34;46.33;98400.28;8384682;28;20258;-72
2023/02/27 02:49:17;;;;;;;2.17;1.50;;;;;;;3.21;45.68;98507.25;8384472;28;20555;-72
2023/02/27 02:53:29;;;;;;;4.00;1.70;;;;;;;2.88;45.84;98501.47;8384080;28;20232;-72
2023/02/27 02:57:42;;;;;;;3.03;1.47;;;;;;;2.73;45.68;98444.41;8383963;28;20422;-72
2023/02/27 03:01:49;;;;;;;3.67;1.40;;;;;;;2.97;45.81;98511.66;8383866;28;20259;-72
2023/02/27 03:05:56;;;;;;;4.23;1.97;;;;;;;2.50;46.99;98513.53;8383950;28;20511;-72
2023/02/27 03:10:04;;;;;;;3.63;1.70;;;;;;;2.60;46.39;98516.06;8383849;28;20551;-72
2023/02/27 03:14:14;;;;;;;2.30;1.50;;;;;;;2.85;46.26;98519.38;8383727;28;20320;-72
2023/02/27 03:18:19;;;;;;;3.77;2.10;;;;;;;2.94;46.46;98527.84;8383794;28;20229;-72
2023/02/27 03:22:25;;;;;;;3.00;1.63;;;;;;;2.34;48.03;98540.00;8383412;28;20236;-72
2023/02/27 03:26:32;;;;;;;3.03;1.43;;;;;;;2.56;47.43;98534.84;8383188;28;20224;-72
2023/02/27 03:30:41;;;;;;;2.87;1.80;;;;;;;2.67;46.57;98533.94;8383412;28;20232;-72
2023/02/27 03:34:45;;;;;;;1.93;1.50;;;;;;;2.53;46.91;98533.13;8382906;28;20220;-72
2023/02/27 03:38:52;;;;;;;2.40;1.50;;;;;;;2.64;46.95;98536.50;8383048;28;20228;-72
2023/02/27 03:42:59;;;;;;;3.93;1.63;;;;;;;2.80;46.30;98508.31;8382863;28;20241;-72
2023/02/27 03:47:04;;;;;;;2.63;1.73;;;;;;;2.38;47.48;98528.06;8382884;28;20416;-72
2023/02/27 03:51:06;;;;;;;2.97;1.80;;;;;;;2.72;46.87;98539.91;8382663;28;20243;-72
2023/02/27 03:55:11;;;;;;;2.83;1.83;;;;;;;2.22;47.98;98542.59;8382495;28;20240;-72
2023/02/27 03:59:14;;;;;;;3.83;1.80;;;;;;;2.74;46.54;98540.75;8382419;28;20225;-72
2023/02/27 04:03:19;;;;;;;2.10;1.90;;;;;;;2.58;47.17;98533.13;8382175;28;20244;-72
2023/02/27 04:07:27;;;;;;;2.83;2.20;;;;;;;2.69;46.62;98537.34;8382203;28;20232;-72
2023/02/27 04:11:56;;;;;;;3.53;1.87;;;;;;;2.09;46.70;98465.09;8381257;28;20225;-72
2023/02/27 04:16:15;;;;;;;3.50;1.83;;;;;;;2.70;46.30;98540.75;8381523;28;20262;-72
2023/02/27 04:20:38;;;;;;;3.50;1.80;;;;;;;2.38;47.37;98540.84;8381867;28;20380;-72
2023/02/27 04:24:49;;;;;;;2.40;1.87;;;;;;;2.47;46.45;98539.09;8380779;28;20224;-73
2023/02/27 04:28:59;;;;;;;3.17;2.00;;;;;;;2.15;47.07;98555.38;8381237;28;20231;-72
2023/02/27 04:33:08;;;;;;;2.13;1.70;;;;;;;2.62;46.01;98558.69;8381210;28;20224;-71
2023/02/27 04:37:15;;;;;;;4.83;1.80;;;;;;;2.27;46.75;98562.19;8381226;28;20232;-72
2023/02/27 04:41:21;;;;;;;2.20;1.60;;;;;;;2.34;46.87;98563.88;8381120;28;20248;-71
2023/02/27 04:45:26;;;;;;;3.07;1.80;;;;;;;2.18;47.12;98556.22;8380851;28;20453;-72
2023/02/27 04:49:31;;;;;;;2.90;1.70;;;;;;;2.63;46.25;98564.66;8380959;28;20229;-72
2023/02/27 04:53:40;;;;;;;1.93;1.60;;;;;;;2.44;45.68;98530.63;8380375;28;20229;-72
2023/02/27 04:57:49;;;;;;;2.70;1.70;;;;;;;2.53;45.83;98551.91;8379987;28;20220;-72
2023/02/27 05:01:55;;;;;;;2.93;1.87;;;;;;;2.53;45.57;98569.78;8380301;28;20240;-71
2023/02/27 05:05:59;;;;;;;3.27;1.63;;;;;;;2.61;45.97;98574.91;8380299;28;20233;-70
2023/02/27 05:10:06;;;;;;;3.90;1.67;;;;;;;2.54;45.83;98573.19;8379991;28;20450;-72
2023/02/27 05:14:14;;;;;;;3.27;1.50;;;;;;;2.45;46.13;98551.03;8379617;28;20366;-72
2023/02/27 05:18:19;;;;;;;2.40;1.33;;;;;;;2.73;45.67;98584.22;8380113;28;20225;-72
2023/02/27 05:22:25;;;;;;;1.63;1.50;;;;;;;2.09;47.00;98585.19;8378963;28;20411;-72
2023/02/27 05:26:39;;;;;;;2.47;1.37;;;;;;;2.52;45.53;98596.22;8379336;28;20232;-73
2023/02/27 05:30:46;;;;;;;1.50;1.40;;;;;;;2.72;45.19;98597.84;8379378;28;20229;-72
2023/02/27 05:34:52;;;;;;;2.73;1.63;;;;;;;2.72;45.07;98606.41;8379464;28;20461;-70
2023/02/27 05:38:59;;;;;;;4.20;1.87;;;;;;;2.49;45.36;98592.81;8379153;28;20242;-72
2023/02/27 05:43:06;;;;;;;1.93;1.70;;;;;;;2.14;45.67;98602.22;8378897;28;20236;-71
2023/02/27 05:47:12;;;;;;;2.63;1.90;;;;;;;2.58;45.55;98607.28;8379294;28;20234;-70
2023/02/27 05:51:17;;;;;;;2.83;1.60;;;;;;;2.46;45.99;98619.25;8378469;28;20231;-72
2023/02/27 05:55:23;;;;;;;3.37;1.50;;;;;;;2.60;45.63;98624.31;8379151;28;20225;-71
2023/02/27 05:59:32;;;;;;;4.63;1.80;;;;;;;2.53;45.26;98613.25;8378973;28;20221;-72
2023/02/27 06:03:36;;;;;;;2.57;1.70;;;;;;;2.50;45.79;98627.75;8379126;28;20257;-72
2023/02/27 06:07:39;;;;;;;2.13;1.70;;;;;;;2.58;45.13;98627.75;8379191;28;20228;-72
2023/02/27 06:11:41;;;;;;;2.47;2.10;;;;;;;2.53;45.67;98625.19;8378259;28;20231;-72
2023/02/27 06:15:46;;;;;;;2.83;2.20;;;;;;;2.54;45.34;98609.00;8378777;28;20225;-72
2023/02/27 06:19:48;;;;;;;5.03;2.30;;;;;;;2.63;45.42;98642.22;8378793;28;20423;-73
2023/02/27 06:23:51;;;;;;;3.27;2.00;;;;;;;2.80;45.24;98639.63;8378685;28;20427;-72
2023/02/27 06:27:54;;;;;;;2.37;1.80;;;;;;;2.58;45.27;98608.13;8378389;28;20248;-73
2023/02/27 06:31:58;;;;;;;2.70;1.80;;;;;;;2.58;45.29;98651.59;8379221;28;20233;-73
2023/02/27 06:36:01;;;;;;;2.33;1.70;;;;;;;2.69;45.11;98659.28;8384826;28;20252;-72
2023/02/27 06:40:10;;;;;;;4.83;1.97;;;;;;;2.71;45.39;98645.63;8384448;28;20244;-73
2023/02/27 06:44:14;;;;;;;3.83;1.80;;;;;;;3.82;43.26;98657.13;8384352;28;20229;-73
2023/02/27 06:48:21;;;;;;;2.20;1.40;;;;;;;4.61;41.36;98653.09;8384516;28;20221;-73
2023/02/27 06:52:27;;;;;;;3.37;1.70;;;;;;;5.41;39.85;98656.50;8384080;28;20422;-72
2023/02/27 06:56:29;;;;;;;2.13;1.60;;;;;;;5.51;39.80;98652.09;8383752;28;20224;-72
2023/02/27 07:00:36;;;;;;;2.70;1.73;;;;;;;5.30;38.79;98654.06;8384071;28;20221;-73
2023/02/27 07:04:40;;;;;;;1.77;1.63;;;;;;;5.08;38.69;98553.31;8383888;28;20547;-73
2023/02/27 07:08:43;;;;;;;5.07;1.80;;;;;;;4.61;40.30;98647.13;8365918;28;20509;-73
2023/02/27 07:13:08;;;;;;;2.30;1.60;;;;;;;5.90;38.36;98652.41;8383494;28;20330;-73
2023/02/27 07:17:13;;;;;;;4.00;1.70;;;;;;;5.48;37.91;98658.09;8383352;28;20431;-73
2023/02/27 07:21:17;;;;;;;2.23;1.60;;;;;;;5.56;38.35;98648.59;8383539;28;20236;-73
2023/02/27 07:25:19;;;;;;;3.37;1.60;;;;;;;6.23;37.02;98651.09;8383222;28;20536;-73
2023/02/27 07:29:24;;;;;;;2.57;1.60;;;;;;;6.06;37.47;98644.47;8382943;28;20248;-73
2023/02/27 07:33:27;;;;;;;2.90;1.60;;;;;;;6.09;37.52;98655.59;8383045;28;20233;-73
2023/02/27 07:37:35;;;;;;;2.50;1.90;;;;;;;5.48;38.50;98660.69;8383015;28;20403;-73
2023/02/27 07:41:40;;;;;;;2.70;1.80;;;;;;;6.16;37.90;98658.03;8382644;28;20279;-73
2023/02/27 07:45:46;;;;;;;2.70;1.50;;;;;;;6.72;37.00;98664.84;8380792;28;20547;-73
2023/02/27 07:49:49;;;;;;;3.10;1.90;;;;;;;6.02;37.31;98665.13;8382716;28;20225;-73
2023/02/27 07:53:53;;;;;;;2.73;2.00;;;;;;;6.51;36.77;98666.94;8382210;28;20229;-73
2023/02/27 07:57:56;;;;;;;2.70;1.90;;;;;;;7.53;34.74;98673.59;8381922;28;20228;-73
2023/02/27 08:01:59;;;;;;;3.77;2.00;;;;;;;7.48;35.44;98666.84;8381879;28;20541;-73
2023/02/27 08:06:02;;;;;;;2.93;2.10;;;;;;;7.27;35.16;98617.44;8381973;28;20529;-73
2023/02/27 08:10:07;;;;;;;5.83;1.40;;;;;;;9.29;66.95;98675.41;8381828;28;20221;-72
2023/02/27 08:14:10;;;;;;;3.97;1.43;;;;;;;7.46;45.13;98669.44;8381201;28;20248;-75
2023/02/27 08:18:16;;;;;;;1.87;1.60;;;;;;;6.13;40.05;98668.41;8381426;28;20512;-73
2023/02/27 08:22:19;;;;;;;2.73;1.57;;;;;;;6.52;37.17;98662.63;8381486;28;20225;-71
2023/02/27 08:26:24;;;;;;;3.00;1.70;;;;;;;6.30;36.15;98647.53;8381253;28;20239;-73
2023/02/27 08:30:27;;;;;;;2.00;1.80;;;;;;;5.84;37.19;98643.91;8380884;28;20579;-73
2023/02/27 08:34:30;;;;;;;1.77;1.57;;;;;;;6.78;35.95;98669.91;8380691;28;20228;-73
2023/02/27 08:38:33;;;;;;;2.50;1.67;;;;;;;8.09;33.96;98664.66;8379885;28;20424;-73
2023/02/27 08:42:37;;;;;;;3.57;1.83;;;;;;;7.62;33.93;98657.94;8380698;28;20236;-74
2023/02/27 08:46:40;;;;;;;2.27;1.70;;;;;;;7.14;35.12;98664.94;8380298;28;20252;-73
2023/02/27 08:50:43;;;;;;;3.57;1.60;;;;;;;7.56;33.48;98667.56;8380139;28;20220;-74
2023/02/27 08:54:46;;;;;;;2.03;1.50;;;;;;;6.61;34.98;98660.75;8379852;28;20221;-74
2023/02/27 08:58:50;;;;;;;3.08;1.60;;;;;;;9.06;32.28;98672.59;8379825;28;20413;-74
2023/02/27 09:02:53;;;;;;;1.50;1.40;;;;;;;9.11;31.97;98674.16;8379329;28;20231;-74
2023/02/27 09:07:00;;;;;;;2.17;1.50;;;;;;;6.63;34.02;98678.75;8379554;28;20233;-74
2023/02/27 09:11:06;;;;;;;2.00;1.63;;;;;;;6.36;34.28;98675.75;8379290;28;20225;-73
2023/02/27 09:15:12;;;;;;;3.17;1.70;;;;;;;8.73;31.91;98681.19;8379072;28;20232;-74
2023/02/27 09:19:14;;;;;;;4.63;1.97;;;;;;;6.69;32.77;98639.19;8379178;28;20536;-74
2023/02/27 09:23:17;;;;;;;2.63;1.63;;;;;;;8.28;32.46;98677.97;8379344;28;20225;-74
2023/02/27 09:27:20;;;;;;;2.80;1.73;;;;;;;8.28;32.59;98684.00;8379233;28;20232;-74
2023/02/27 09:31:25;;;;;;;2.03;1.53;;;;;;;9.59;30.50;98689.22;8378920;28;20232;-74
2023/02/27 09:35:28;;;;;;;2.30;1.50;;;;;;;7.86;32.55;98685.81;8377939;28;20409;-73
2023/02/27 09:39:31;;;;;;;1.60;1.50;;;;;;;9.48;30.92;98677.47;8378929;28;20231;-74
2023/02/27 09:43:36;;;;;;;3.33;1.70;;;;;;;8.25;31.93;98693.53;8378661;28;20228;-74
2023/02/27 09:47:44;;;;;;;3.13;1.63;;;;;;;7.97;32.75;98704.47;8378022;28;20229;-74
2023/02/27 09:51:48;;;;;;;3.47;1.50;;;;;;;8.93;31.95;98695.31;8377788;28;20221;-74
2023/02/27 09:55:58;;;;;;;2.13;1.40;;;;;;;7.87;32.69;98697.84;8378654;28;20323;-74
2023/02/27 10:00:04;;;;;;;2.27;1.47;;;;;;;10.01;29.59;98643.13;8378306;28;20228;-74
2023/02/27 10:04:30;;;;;;;2.47;1.60;;;;;;;9.37;30.28;98701.06;8378283;28;20225;-75
2023/02/27 10:08:36;;;;;;;2.97;1.70;;;;;;;10.68;29.35;98704.88;8381455;28;20229;-74
2023/02/27 10:12:49;;;;;;;1.97;1.40;;;;;;;10.01;29.08;98713.84;8385048;28;20244;-74
2023/02/27 10:16:53;;;;;;;1.63;1.17;;;;;;;10.85;28.28;98717.28;8384517;28;20507;-74
2023/02/27 10:21:00;;;;;;;2.20;1.20;;;;;;;9.28;30.80;98684.06;8384573;28;20299;-75
2023/02/27 10:25:05;;;;;;;1.57;1.23;;;;;;;9.13;29.04;98711.16;8384523;28;20230;-74
2023/02/27 10:29:28;;;;;;;2.80;1.80;;;;;;;10.81;27.66;98721.72;8384162;28;20218;-74
2023/02/27 10:33:34;;;;;;;3.10;1.80;;;;;;;11.28;26.53;98715.81;8384144;28;20254;-74
2023/02/27 10:37:45;;;;;;;2.10;1.43;;;;;;;9.90;27.24;98718.50;8384228;28;20222;-74
2023/02/27 10:41:49;;;;;;;3.57;2.07;;;;;;;7.93;31.72;98708.84;8383917;28;20225;-75
2023/02/27 10:45:53;;;;;;;2.87;1.53;;;;;;;8.10;31.10;98726.53;8383516;28;20542;-74
2023/02/27 10:49:58;;;;;;;3.60;1.00;;;;;;;7.09;31.00;98724.28;8383551;28;20225;-74
2023/02/27 10:54:22;;;;;;;2.57;1.13;;;;;;;9.95;28.37;98730.41;8383297;28;20251;-73
2023/02/27 10:58:25;;;;;;;1.80;1.10;;;;;;;6.59;31.69;98738.88;8383410;28;20231;-74
2023/02/27 11:02:34;;;;;;;1.30;0.93;;;;;;;5.23;33.78;98724.34;8383638;28;20350;-74
2023/02/27 11:06:37;;;;;;;1.47;1.00;;;;;;;5.83;42.98;98721.06;8383230;28;20225;-73
2023/02/27 11:10:54;;;;;;;1.73;1.30;;;;;;;5.36;34.54;98719.94;8383174;28;20531;-73
2023/02/27 11:14:59;;;;;;;3.90;3.03;;;;;;;4.84;34.71;98716.19;8387345;28;20235;-73
2023/02/27 11:19:29;;;;;;;5.40;4.47;;;;;;;5.22;34.66;98714.94;8381331;28;20229;-73
2023/02/27 11:23:32;;;;;;;13.67;8.90;;;;;;;5.13;34.19;98674.81;8382878;28;20265;-73
2023/02/27 11:27:37;;;;;;;1.63;1.20;;;;;;;4.62;34.72;98710.38;8382636;28;20233;-73
2023/02/27 11:31:46;;;;;;;2.73;1.13;;;;;;;4.94;34.13;98709.25;8382653;28;20247;-74
2023/02/27 11:35:56;;;;;;;12.10;8.77;;;;;;;5.99;33.99;98704.56;8385523;28;20411;-72
2023/02/27 11:40:05;;;;;;;4.60;4.20;;;;;;;5.42;34.45;98696.72;8383517;28;20390;-73
2023/02/27 11:44:15;;;;;;;2.40;1.07;;;;;;;4.79;33.77;98698.25;8382177;28;20225;-72
2023/02/27 11:48:22;;;;;;;3.37;1.60;;;;;;;4.68;34.97;98684.66;8382176;28;20271;-74
2023/02/27 11:52:30;;;;;;;4.10;3.75;;;;;;;5.84;32.44;98674.75;8379813;28;20405;-74
2023/02/27 11:56:36;;;;;;;2.63;1.80;;;;;;;6.11;36.30;98684.69;8381887;28;20252;-73
2023/02/27 12:00:45;;;;;;;2.20;1.57;;;;;;;6.70;32.95;98694.91;8381142;28;20527;-74
2023/02/27 12:04:51;;;;;;;2.93;1.13;;;;;;;5.65;32.74;98692.16;8380933;28;20224;-74
2023/02/27 12:08:59;;;;;;;1.27;0.70;;;;;;;4.95;33.75;98675.00;8381295;28;20229;-74
2023/02/27 12:13:04;;;;;;;2.97;1.20;;;;;;;6.10;33.68;98676.16;8380594;28;20540;-74
2023/02/27 12:17:12;;;;;;;2.63;1.03;;;;;;;5.77;32.47;98670.59;8380544;28;20292;-74
2023/02/27 12:21:17;;;;;;;2.97;1.87;;;;;;;6.35;32.19;98668.91;8380595;28;20286;-74
2023/02/27 12:25:30;;;;;;;1.33;0.87;;;;;;;5.86;32.29;98660.19;8380440;28;20538;-74
2023/02/27 12:29:36;;;;;;;4.83;1.00;;;;;;;5.98;32.11;98663.50;8380395;28;20241;-74
2023/02/27 12:33:44;;;;;;;1.67;1.30;;;;;;;7.37;30.69;98637.00;8380390;28;20334;-74
2023/02/27 12:37:47;;;;;;;2.00;1.20;;;;;;;6.73;30.61;98646.81;8377636;28;20405;-73
2023/02/27 12:42:20;;;;;;;2.23;1.20;;;;;;;6.87;30.80;98649.13;8379999;28;20240;-74
2023/02/27 12:46:35;;;;;;;2.47;1.73;;;;;;;6.79;30.71;98653.56;8380117;28;20236;-74
2023/02/27 12:50:46;;;;;;;2.07;1.10;;;;;;;4.95;32.39;98629.66;8380309;28;20288;-74
2023/02/27 12:54:55;;;;;;;3.03;1.10;;;;;;;5.35;32.35;98659.13;8379243;28;20232;-74
2023/02/27 12:59:07;;;;;;;1.83;0.80;;;;;;;5.92;31.99;98655.81;8380082;28;20241;-74
2023/02/27 13:03:13;;;;;;;1.77;1.10;;;;;;;5.30;32.31;98654.06;8379851;28;20224;-72
2023/02/27 13:07:23;;;;;;;1.90;1.20;;;;;;;5.37;32.37;98657.38;8379469;28;20228;-73
2023/02/27 13:11:35;;;;;;;2.50;1.20;;;;;;;6.96;32.17;98659.25;8379604;28;20313;-73
2023/02/27 13:15:41;;;;;;;3.07;1.30;;;;;;;7.75;31.48;98650.81;8379482;28;20435;-74
2023/02/27 13:19:48;;;;;;;1.10;1.00;;;;;;;7.38;31.05;98627.53;8378918;28;20228;-74
2023/02/27 13:24:03;;;;;;;1.53;1.10;;;;;;;8.23;30.38;98650.53;8379190;28;20476;-74
2023/02/27 13:28:08;;;;;;;2.27;1.10;;;;;;;8.85;29.28;98649.03;8378911;28;20240;-74
2023/02/27 13:32:22;;;;;;;1.30;0.97;;;;;;;8.80;29.85;98644.00;8378915;28;20420;-74
2023/02/27 13:36:41;;;;;;;2.13;1.10;;;;;;;6.92;30.67;98649.91;8378641;28;20540;-74
2023/02/27 13:40:46;;;;;;;3.17;1.10;;;;;;;7.80;30.59;98648.09;8378397;28;20255;-72
2023/02/27 13:44:49;;;;;;;1.83;1.07;;;;;;;8.03;30.87;98638.13;8377547;28;20305;-74
2023/02/27 13:48:54;;;;;;;2.47;1.30;;;;;;;6.07;31.32;98628.19;8378306;28;20351;-74
2023/02/27 13:52:56;;;;;;;3.47;1.30;;;;;;;7.71;28.89;98631.13;8378490;28;20424;-74
2023/02/27 13:57:21;;;;;;;1.07;0.80;;;;;;;6.25;30.72;98634.75;8378731;28;20233;-74
2023/02/27 14:01:27;;;;;;;2.77;0.93;;;;;;;5.20;31.71;98642.22;8371578;28;20231;-74
2023/02/27 14:05:34;;;;;;;4.45;1.33;;;;;;;6.58;30.38;98595.63;8376990;28;20417;-74
2023/02/27 14:09:40;;;;;;;1.27;0.83;;;;;;;5.27;31.73;98630.97;8378262;28;20233;-74
2023/02/27 14:14:05;;;;;;;1.03;0.60;;;;;;;5.79;31.62;98632.88;8377953;28;20315;-74
2023/02/27 14:18:46;;;;;;;2.40;0.83;;;;;;;7.06;31.34;98626.44;8378148;28;20240;-74
2023/02/27 14:23:16;;;;;;;1.67;0.87;;;;;;;6.36;32.56;98638.88;8377868;28;20547;-74
2023/02/27 14:27:22;;;;;;;0.70;0.60;;;;;;;6.42;32.18;98646.50;8378526;28;20221;-74
2023/02/27 14:31:30;;;;;;;1.23;0.80;;;;;;;5.90;32.23;98634.41;8378640;28;20232;-75
2023/02/27 14:35:34;;;;;;;1.07;0.97;;;;;;;6.44;31.91;98648.16;8377903;28;20292;-74
2023/02/27 14:39:38;;;;;;;0.80;0.77;;;;;;;5.76;32.74;98637.19;8377606;28;20231;-74
2023/02/27 14:43:43;;;;;;;1.23;0.63;;;;;;;6.16;32.86;98631.47;8377293;28;20217;-76
2023/02/27 14:47:47;;;;;;;1.07;0.60;;;;;;;5.63;32.79;98636.50;8377884;28;20233;-75
2023/02/27 14:51:50;;;;;;;0.95;0.80;;;;;;;7.17;31.31;98642.53;8376531;28;20422;-75
2023/02/27 14:55:55;;;;;;;1.00;0.80;;;;;;;5.88;32.42;98632.72;8382677;28;20275;-75
2023/02/27 14:59:58;;;;;;;4.17;1.10;;;;;;;5.97;32.80;98649.75;8384004;28;20432;-75
2023/02/27 15:04:01;;;;;;;1.47;0.97;;;;;;;6.25;33.12;98646.78;8383799;28;20235;-75
2023/02/27 15:08:04;;;;;;;1.45;0.98;;;;;;;5.99;33.73;98626.59;8381779;28;20398;-75
2023/02/27 15:12:08;;;;;;;1.30;1.20;;;;;;;5.70;35.72;98657.84;8383466;28;20225;-75
2023/02/27 15:16:36;;;;;;;1.73;1.37;;;;;;;6.66;35.40;98660.66;8382977;28;20225;-74
2023/02/27 15:20:39;;;;;;;1.20;1.10;;;;;;;5.67;36.26;98648.44;8383657;28;20410;-74
2023/02/27 15:24:45;;;;;;;1.00;1.00;;;;;;;6.08;36.14;98667.59;8382315;28;20232;-76
2023/02/27 15:28:53;;;;;;;2.00;1.00;;;;;;;6.15;35.48;98655.50;8383210;28;20252;-75
2023/02/27 15:32:56;;;;;;;0.87;0.87;;;;;;;5.76;35.72;98662.91;8382981;28;20524;-76
2023/02/27 15:37:00;;;;;;;1.57;0.90;;;;;;;5.86;35.58;98601.06;8382662;28;20236;-75
2023/02/27 15:41:04;;;;;;;1.65;1.10;;;;;;;6.74;34.71;98661.38;8380983;28;20402;-75
2023/02/27 15:45:13;;;;;;;2.07;1.40;;;;;;;6.31;35.57;98663.84;8382774;28;20225;-75
2023/02/27 15:49:21;;;;;;;1.27;1.17;;;;;;;6.14;35.96;98666.66;8382560;28;20284;-75
2023/02/27 15:53:25;;;;;;;1.70;1.20;;;;;;;5.71;36.15;98665.50;8382129;28;20528;-75
2023/02/27 15:57:29;;;;;;;0.80;0.80;;;;;;;5.42;36.90;98638.50;8382173;28;20225;-75
2023/02/27 16:01:37;;;;;;;1.98;1.50;;;;;;;6.44;35.34;98645.59;8380914;28;20420;-75
2023/02/27 16:05:41;;;;;;;2.50;1.20;;;;;;;6.41;34.43;98649.94;8379327;28;20409;-75
2023/02/27 16:09:44;;;;;;;3.03;1.10;;;;;;;6.37;35.22;98677.44;8381267;28;20554;-75
2023/02/27 16:13:51;;;;;;;2.87;1.37;;;;;;;6.27;35.33;98673.31;8381684;28;20224;-75
2023/02/27 16:18:01;;;;;;;2.05;1.10;;;;;;;6.87;34.30;98674.88;8379655;28;20421;-76
2023/02/27 16:22:06;;;;;;;1.60;1.10;;;;;;;6.36;34.60;98687.75;8381236;28;20229;-75
2023/02/27 16:26:22;;;;;;;3.50;1.17;;;;;;;6.29;34.94;98688.75;8381089;28;20224;-75
2023/02/27 16:30:26;;;;;;;2.50;1.40;;;;;;;6.00;35.84;98692.59;8363192;28;20252;-75
2023/02/27 16:34:34;;;;;;;1.63;1.10;;;;;;;6.23;35.77;98693.09;8380906;28;20229;-76
2023/02/27 16:38:47;;;;;;;2.00;1.50;;;;;;;6.18;35.69;98697.44;8380423;28;20250;-75
2023/02/27 16:42:51;;;;;;;3.03;1.67;;;;;;;6.17;35.66;98711.19;8380631;28;20292;-75
2023/02/27 16:46:57;;;;;;;1.27;1.10;;;;;;;5.88;36.90;98712.44;8380611;28;20547;-76
2023/02/27 16:51:01;;;;;;;1.30;1.20;;;;;;;6.19;36.11;98711.19;8380445;28;20403;-76
2023/02/27 16:55:04;;;;;;;1.70;1.30;;;;;;;6.01;36.02;98702.84;8379861;28;20428;-75
2023/02/27 16:59:07;;;;;;;3.17;1.30;;;;;;;5.98;36.32;98723.47;8379742;28;20229;-75
2023/02/27 17:03:10;;;;;;;1.87;1.40;;;;;;;5.60;37.14;98727.34;8380107;28;20221;-76
2023/02/27 17:07:16;;;;;;;3.43;1.50;;;;;;;5.73;36.92;98671.50;8380134;28;20240;-76
2023/02/27 17:11:19;;;;;;;2.57;1.60;;;;;;;6.13;37.37;98736.97;8379615;28;20231;-75
2023/02/27 17:15:26;;;;;;;2.77;1.70;;;;;;;5.79;38.26;98739.97;8379578;28;20236;-77
2023/02/27 17:19:28;;;;;;;2.57;1.47;;;;;;;4.37;39.62;98661.84;8379967;28;20233;-75
2023/02/27 17:23:34;;;;;;;2.03;1.30;;;;;;;5.27;40.48;98751.69;8380002;28;20220;-75
2023/02/27 17:27:36;;;;;;;1.87;1.37;;;;;;;5.23;40.21;98698.66;8379528;28;20233;-75
2023/02/27 17:31:40;;;;;;;2.50;1.30;;;;;;;5.25;40.85;98732.88;8379898;28;20501;-74
2023/02/27 17:35:43;;;;;;;1.57;1.47;;;;;;;5.29;41.39;98761.09;8379111;28;20299;-74
2023/02/27 17:39:48;;;;;;;1.70;1.57;;;;;;;5.55;41.22;98759.94;8379696;28;20221;-73
2023/02/27 17:43:52;;;;;;;1.50;1.40;;;;;;;4.79;42.52;98777.78;8379398;28;20235;-74
2023/02/27 17:47:55;;;;;;;3.93;1.80;;;;;;;5.35;41.34;98774.72;8379286;28;20241;-74
2023/02/27 17:51:59;;;;;;;3.13;1.93;;;;;;;4.56;42.89;98779.69;8379089;28;20240;-74
2023/02/27 17:56:04;;;;;;;2.70;2.05;;;;;;;4.89;42.94;98782.00;8379146;28;20409;-75
2023/02/27 18:00:12;;;;;;;2.90;2.10;;;;;;;4.37;44.16;98799.47;8379615;28;20231;-76
2023/02/27 18:04:16;;;;;;;2.60;1.87;;;;;;;5.29;42.42;98791.91;8379249;28;20228;-74
2023/02/27 18:08:19;;;;;;;2.53;1.80;;;;;;;5.01;42.95;98798.19;8379132;28;20233;-74
2023/02/27 18:12:24;;;;;;;2.00;1.80;;;;;;;5.19;42.68;98795.41;8382024;28;20257;-74
2023/02/27 18:16:27;;;;;;;3.13;2.10;;;;;;;4.75;43.77;98803.50;8362343;28;20307;-75
2023/02/27 18:20:30;;;;;;;2.60;1.93;;;;;;;4.90;43.22;98793.97;8379170;28;20295;-75
2023/02/27 18:24:32;;;;;;;3.93;2.50;;;;;;;5.17;43.23;98806.59;8379267;28;20228;-74
2023/02/27 18:28:39;;;;;;;2.57;2.10;;;;;;;5.01;42.54;98752.81;8380344;28;20252;-76
2023/02/27 18:32:42;;;;;;;3.03;2.63;;;;;;;4.56;42.91;98708.72;8384832;28;20247;-77
2023/02/27 18:36:47;;;;;;;3.07;2.33;;;;;;;4.93;43.67;98805.94;8384961;28;20422;-74
2023/02/27 18:40:50;;;;;;;2.87;2.33;;;;;;;5.07;43.32;98809.22;8385004;28;20225;-75
2023/02/27 18:44:54;;;;;;;3.27;2.60;;;;;;;5.13;43.47;98807.47;8384656;28;20246;-74
2023/02/27 18:48:57;;;;;;;3.87;2.97;;;;;;;5.34;42.77;98812.41;8384433;28;20244;-74
2023/02/27 18:53:00;;;;;;;4.30;3.60;;;;;;;4.98;43.45;98809.31;8384477;28;20240;-72
2023/02/27 18:57:03;;;;;;;3.97;3.43;;;;;;;5.07;43.23;98805.81;8384112;28;20220;-72
2023/02/27 19:01:08;;;;;;;3.13;2.50;;;;;;;5.19;43.02;98799.72;8384329;28;20232;-74
2023/02/27 19:05:13;;;;;;;7.20;5.40;;;;;;;5.15;43.42;98813.44;8384430;28;20221;-73
2023/02/27 19:09:16;;;;;;;3.23;2.67;;;;;;;4.84;43.90;98819.69;8383957;28;20237;-72
2023/02/27 19:13:18;;;;;;;11.17;3.90;;;;;;;7.20;80.04;98832.28;8383497;28;20244;-74
2023/02/27 19:17:25;;;;;;;5.10;2.77;;;;;;;8.76;60.30;98830.91;8383739;28;20229;-75
2023/02/27 19:21:28;;;;;;;4.77;3.20;;;;;;;9.04;45.51;98773.41;8384086;28;20224;-73
2023/02/27 19:25:31;;;;;;;8.73;8.03;;;;;;;6.36;42.32;98819.81;8383682;28;20232;-73
2023/02/27 19:29:34;;;;;;;3.97;3.67;;;;;;;6.20;42.81;98829.44;8383568;28;20225;-74
2023/02/27 19:33:39;;;;;;;2.60;2.40;;;;;;;6.01;42.97;98828.81;8383449;28;20229;-74